Time;durP1;ratioP1;P1;durP2;ratioP2;P2;SDS_P1;SDS_P2;PMS_P1;PMS_P2;Temp;Humidity;BMP_temperature;BMP_pressure;BME280_temperature;BME280_humidity;BME280_pressure;Samples;Min_cycle;Max_cycle;Signal;HPM_P1;HPM_P2
2022/10/12 00:00:51;;;;;;;1.50;1.03;;;;;;;;;;5044255;28;20260;-50
2022/10/12 00:03:18;;;;;;;1.57;1.13;;;;;;;;;;5044903;28;20297;-53
2022/10/12 00:05:45;;;;;;;0.90;0.80;;;;;;;;;;5045841;28;20663;-51
2022/10/12 00:08:12;;;;;;;1.27;1.10;;;;;;;;;;5048605;28;20237;-50
2022/10/12 00:10:40;;;;;;;1.10;0.93;;;;;;;;;;5043736;28;20729;-49
2022/10/12 00:13:07;;;;;;;1.13;1.00;;;;;;;;;;5042150;28;20317;-53
2022/10/12 00:15:38;;;;;;;1.00;0.93;;;;;;;;;;5044164;28;20195;-49
2022/10/12 00:18:06;;;;;;;1.20;1.07;;;;;;;;;;5045062;28;20222;-54
2022/10/12 00:20:33;;;;;;;2.57;0.90;;;;;;;;;;5045623;28;20222;-49
2022/10/12 00:22:59;;;;;;;1.30;1.00;;;;;;;;;;5041933;28;20243;-50
2022/10/12 00:25:26;;;;;;;1.47;0.93;;;;;;;;;;5042236;28;20335;-50
2022/10/12 00:27:52;;;;;;;1.53;1.20;;;;;;;;;;5044075;28;20231;-50
2022/10/12 00:30:18;;;;;;;1.63;1.10;;;;;;;;;;5038952;28;20249;-50
2022/10/12 00:32:45;;;;;;;1.33;0.90;;;;;;;;;;5036902;28;20318;-49
2022/10/12 00:35:11;;;;;;;1.53;1.00;;;;;;;;;;5046349;28;20237;-52
2022/10/12 00:37:37;;;;;;;1.50;1.03;;;;;;;;;;5046280;28;20286;-51
2022/10/12 00:40:05;;;;;;;1.13;0.90;;;;;;;;;;5041404;28;20830;-54
2022/10/12 00:42:31;;;;;;;1.27;1.00;;;;;;;;;;5046286;28;20247;-49
2022/10/12 00:44:58;;;;;;;1.10;1.00;;;;;;;;;;5043531;28;20290;-50
2022/10/12 00:47:35;;;;;;;1.60;1.13;;;;;;;;;;5043941;28;20238;-52
2022/10/12 00:50:15;;;;;;;1.13;1.00;;;;;;;;;;5038181;28;20722;-53
2022/10/12 00:52:46;;;;;;;1.53;1.20;;;;;;;;;;5038479;28;20250;-53
2022/10/12 00:55:15;;;;;;;1.93;1.30;;;;;;;;;;5037935;28;20337;-54
2022/10/12 00:57:42;;;;;;;1.23;1.00;;;;;;;;;;5041823;28;20589;-50
2022/10/12 01:02:49;;;;;;;1.23;1.00;;;;;;;;;;5190988;22;1036204;-55
2022/10/12 01:05:16;;;;;;;1.20;1.10;;;;;;;;;;5022143;28;20200;-54
2022/10/12 01:07:42;;;;;;;1.83;1.20;;;;;;;;;;5018656;28;20679;-57
2022/10/12 01:10:09;;;;;;;1.50;0.97;;;;;;;;;;5038350;28;20283;-54
2022/10/12 01:12:36;;;;;;;1.10;1.00;;;;;;;;;;5027971;28;20224;-54
2022/10/12 01:15:03;;;;;;;1.10;0.90;;;;;;;;;;5004714;28;20648;-55
2022/10/12 01:18:05;;;;;;;1.23;1.07;;;;;;;;;;5012538;28;20278;-54
2022/10/12 01:20:43;;;;;;;1.37;0.90;;;;;;;;;;5008227;28;20726;-55
2022/10/12 01:23:16;;;;;;;1.30;0.80;;;;;;;;;;5028113;28;20254;-55
2022/10/12 01:26:13;;;;;;;1.20;1.00;;;;;;;;;;5027600;28;20307;-55
2022/10/12 01:28:52;;;;;;;2.10;1.07;;;;;;;;;;5027285;28;20227;-54
2022/10/12 01:31:42;;;;;;;1.40;1.10;;;;;;;;;;5028201;28;20219;-52
2022/10/12 01:34:17;;;;;;;1.43;0.90;;;;;;;;;;5007787;28;20283;-55
2022/10/12 01:36:54;;;;;;;0.90;0.80;;;;;;;;;;5030048;28;20293;-55
2022/10/12 01:39:24;;;;;;;1.07;0.97;;;;;;;;;;5019847;28;20279;-55
2022/10/12 01:41:56;;;;;;;1.10;0.87;;;;;;;;;;5026251;28;20321;-55
2022/10/12 01:44:24;;;;;;;1.27;1.00;;;;;;;;;;5009947;28;20223;-56
2022/10/12 01:46:52;;;;;;;1.70;1.07;;;;;;;;;;5027998;28;20295;-58
2022/10/12 01:49:22;;;;;;;1.80;0.93;;;;;;;;;;5028890;28;20742;-55
2022/10/12 01:52:07;;;;;;;1.30;1.00;;;;;;;;;;5011652;28;20334;-55
2022/10/12 01:54:59;;;;;;;1.00;0.90;;;;;;;;;;5008810;28;20651;-55
2022/10/12 01:57:34;;;;;;;1.07;0.83;;;;;;;;;;5006402;28;20195;-56
2022/10/12 02:00:08;;;;;;;2.17;1.17;;;;;;;;;;5009691;28;20191;-53
2022/10/12 02:03:06;;;;;;;1.80;1.00;;;;;;;;;;5027899;28;20323;-56
2022/10/12 02:05:54;;;;;;;1.30;0.90;;;;;;;;;;5018167;28;20691;-55
2022/10/12 02:08:29;;;;;;;1.10;0.80;;;;;;;;;;5006260;28;21946;-55
2022/10/12 02:11:10;;;;;;;1.43;0.90;;;;;;;;;;5028154;28;20382;-53
2022/10/12 02:13:40;;;;;;;1.03;0.93;;;;;;;;;;5007195;28;20219;-55
2022/10/12 02:16:11;;;;;;;1.23;1.00;;;;;;;;;;5010292;28;20298;-55
2022/10/12 02:18:41;;;;;;;1.47;1.00;;;;;;;;;;5009330;28;20294;-57
2022/10/12 02:21:08;;;;;;;1.47;0.90;;;;;;;;;;5028268;28;20215;-55
2022/10/12 02:23:35;;;;;;;1.40;0.90;;;;;;;;;;5009713;28;20718;-57
2022/10/12 02:26:02;;;;;;;1.63;0.93;;;;;;;;;;5024608;28;20769;-57
2022/10/12 02:28:29;;;;;;;1.20;0.90;;;;;;;;;;5027598;28;20202;-56
2022/10/12 02:31:00;;;;;;;1.60;1.03;;;;;;;;;;5008803;28;20286;-55
2022/10/12 02:33:49;;;;;;;1.43;0.90;;;;;;;;;;5009124;28;20794;-56
2022/10/12 02:36:38;;;;;;;1.00;0.80;;;;;;;;;;5025454;28;20282;-55
2022/10/12 02:39:14;;;;;;;1.13;0.90;;;;;;;;;;5006300;28;20275;-54
2022/10/12 02:41:45;;;;;;;1.70;0.90;;;;;;;;;;5005722;28;20309;-55
2022/10/12 02:44:14;;;;;;;1.10;1.00;;;;;;;;;;5006464;28;20279;-52
2022/10/12 02:46:41;;;;;;;1.00;0.90;;;;;;;;;;5006588;28;20196;-55
2022/10/12 02:49:08;;;;;;;1.40;0.80;;;;;;;;;;5003634;28;20283;-56
2022/10/12 02:51:36;;;;;;;1.30;0.87;;;;;;;;;;5021548;28;20227;-55
2022/10/12 02:54:02;;;;;;;1.00;0.90;;;;;;;;;;5021028;28;20702;-53
2022/10/12 02:56:28;;;;;;;1.03;0.90;;;;;;;;;;5007084;28;20286;-54
2022/10/12 02:58:55;;;;;;;1.17;0.90;;;;;;;;;;5023705;28;20231;-55
2022/10/12 03:01:21;;;;;;;1.20;1.00;;;;;;;;;;5005419;28;20219;-54
2022/10/12 03:03:47;;;;;;;1.77;1.00;;;;;;;;;;5024437;28;20203;-55
2022/10/12 03:06:14;;;;;;;1.20;0.80;;;;;;;;;;5023155;28;20286;-57
2022/10/12 03:08:40;;;;;;;1.10;0.90;;;;;;;;;;5023061;28;20290;-56
2022/10/12 03:11:08;;;;;;;0.97;0.73;;;;;;;;;;5020975;28;20309;-52
2022/10/12 03:13:34;;;;;;;0.77;0.70;;;;;;;;;;5002611;28;20226;-56
2022/10/12 03:16:08;;;;;;;1.20;1.10;;;;;;;;;;5023684;28;20278;-57
2022/10/12 03:18:35;;;;;;;1.00;0.80;;;;;;;;;;5019376;28;20294;-54
2022/10/12 03:21:01;;;;;;;1.00;0.90;;;;;;;;;;5019480;28;20287;-55
2022/10/12 03:23:28;;;;;;;0.93;0.83;;;;;;;;;;5006023;28;20223;-54
2022/10/12 03:25:54;;;;;;;0.90;0.80;;;;;;;;;;5021900;28;20196;-55
2022/10/12 03:28:20;;;;;;;1.73;0.90;;;;;;;;;;5020507;28;20218;-55
2022/10/12 03:30:47;;;;;;;1.37;0.97;;;;;;;;;;5022969;28;20254;-55
2022/10/12 03:33:13;;;;;;;1.10;0.93;;;;;;;;;;5019374;28;20227;-55
2022/10/12 03:35:43;;;;;;;1.03;0.77;;;;;;;;;;5021486;28;20206;-57
2022/10/12 03:38:09;;;;;;;1.00;0.90;;;;;;;;;;5024246;28;20246;-54
2022/10/12 03:40:37;;;;;;;1.10;0.90;;;;;;;;;;5023453;28;20206;-55
2022/10/12 03:43:03;;;;;;;1.73;1.00;;;;;;;;;;5026249;28;20211;-56
2022/10/12 03:45:29;;;;;;;1.17;0.83;;;;;;;;;;5019634;28;20286;-56
2022/10/12 03:47:56;;;;;;;1.10;0.90;;;;;;;;;;5024254;28;20321;-54
2022/10/12 03:50:29;;;;;;;1.23;0.87;;;;;;;;;;5026937;28;20702;-55
2022/10/12 03:52:55;;;;;;;0.97;0.90;;;;;;;;;;5024821;28;20343;-54
2022/10/12 03:55:22;;;;;;;1.33;0.93;;;;;;;;;;5020516;28;20204;-55
2022/10/12 03:57:49;;;;;;;0.80;0.70;;;;;;;;;;5026289;28;20198;-55
2022/10/12 04:00:15;;;;;;;1.23;0.80;;;;;;;;;;5019864;28;20738;-55
2022/10/12 04:02:41;;;;;;;1.23;1.00;;;;;;;;;;5025429;28;20307;-55
2022/10/12 04:05:08;;;;;;;0.90;0.80;;;;;;;;;;5022320;28;20284;-55
2022/10/12 04:07:34;;;;;;;1.03;0.90;;;;;;;;;;5026756;28;20282;-54
2022/10/12 04:10:01;;;;;;;0.97;0.87;;;;;;;;;;5023742;28;20730;-56
2022/10/12 04:12:28;;;;;;;0.80;0.80;;;;;;;;;;5024479;28;20302;-54
2022/10/12 04:14:54;;;;;;;1.33;0.90;;;;;;;;;;5025695;28;20286;-55
2022/10/12 04:17:20;;;;;;;1.00;0.90;;;;;;;;;;5025346;28;20223;-55
2022/10/12 04:19:47;;;;;;;1.00;0.90;;;;;;;;;;5024162;28;20274;-56
2022/10/12 04:22:13;;;;;;;0.87;0.80;;;;;;;;;;5025554;28;20306;-56
2022/10/12 04:24:39;;;;;;;1.00;0.87;;;;;;;;;;5007891;28;20282;-54
2022/10/12 04:27:06;;;;;;;1.70;0.90;;;;;;;;;;5029764;28;20722;-55
2022/10/12 04:29:32;;;;;;;1.53;1.00;;;;;;;;;;5028767;28;20214;-56
2022/10/12 04:31:59;;;;;;;1.10;0.80;;;;;;;;;;5022304;28;20298;-56
2022/10/12 04:34:25;;;;;;;1.00;0.80;;;;;;;;;;5029589;28;20251;-53
2022/10/12 04:36:51;;;;;;;1.77;1.00;;;;;;;;;;5031040;28;20226;-55
2022/10/12 04:39:18;;;;;;;2.03;1.10;;;;;;;;;;5029449;28;20278;-52
2022/10/12 04:41:44;;;;;;;1.30;1.00;;;;;;;;;;5027377;28;20310;-54
2022/10/12 04:44:10;;;;;;;1.37;0.80;;;;;;;;;;5029049;28;20287;-55
2022/10/12 04:46:36;;;;;;;2.93;1.07;;;;;;;;;;5033345;28;20287;-54
2022/10/12 04:49:03;;;;;;;0.90;0.80;;;;;;;;;;5023836;28;20283;-56
2022/10/12 04:51:29;;;;;;;1.20;0.90;;;;;;;;;;5026930;28;20661;-56
2022/10/12 04:53:55;;;;;;;1.30;0.87;;;;;;;;;;5030032;28;20310;-55
2022/10/12 04:56:22;;;;;;;1.10;0.87;;;;;;;;;;5029504;28;20282;-55
2022/10/12 04:58:48;;;;;;;1.10;1.00;;;;;;;;;;5027630;28;20334;-55
2022/10/12 05:01:14;;;;;;;3.43;1.10;;;;;;;;;;5025188;28;20220;-54
2022/10/12 05:03:41;;;;;;;3.43;2.10;;;;;;;;;;5026688;28;20666;-50
2022/10/12 05:06:07;;;;;;;6.03;2.87;;;;;;;;;;5027637;28;20200;-54
2022/10/12 05:08:34;;;;;;;5.67;2.60;;;;;;;;;;5018690;28;20286;-51
2022/10/12 05:11:00;;;;;;;3.83;2.27;;;;;;;;;;5026637;28;20718;-53
2022/10/12 05:13:27;;;;;;;3.93;2.30;;;;;;;;;;5027280;28;20314;-55
2022/10/12 05:15:53;;;;;;;5.07;2.60;;;;;;;;;;5024960;28;20276;-56
2022/10/12 05:18:20;;;;;;;4.43;2.00;;;;;;;;;;5025767;28;20284;-57
2022/10/12 05:20:46;;;;;;;4.90;2.40;;;;;;;;;;5028504;28;20290;-55
2022/10/12 05:23:13;;;;;;;4.77;2.13;;;;;;;;;;5028837;28;20318;-54
2022/10/12 05:25:39;;;;;;;5.50;2.33;;;;;;;;;;5023510;28;20223;-53
2022/10/12 05:28:06;;;;;;;4.57;2.53;;;;;;;;;;5029470;28;20274;-53
2022/10/12 05:30:32;;;;;;;4.87;2.60;;;;;;;;;;5024779;28;20290;-54
2022/10/12 05:32:59;;;;;;;5.07;2.10;;;;;;;;;;5026812;28;20304;-55
2022/10/12 05:35:25;;;;;;;4.60;2.20;;;;;;;;;;5029361;28;20230;-53
2022/10/12 05:37:52;;;;;;;3.47;2.20;;;;;;;;;;5023937;28;20203;-54
2022/10/12 05:40:18;;;;;;;7.00;2.07;;;;;;;;;;5023967;28;20287;-55
2022/10/12 05:42:44;;;;;;;4.07;2.00;;;;;;;;;;5019887;28;20778;-56
2022/10/12 05:45:11;;;;;;;6.10;2.10;;;;;;;;;;5012657;28;20307;-58
2022/10/12 05:47:39;;;;;;;3.70;1.97;;;;;;;;;;5030334;28;20243;-56
2022/10/12 05:50:06;;;;;;;4.40;2.30;;;;;;;;;;5028711;28;20250;-57
2022/10/12 05:52:32;;;;;;;3.97;2.03;;;;;;;;;;5029313;28;20545;-56
2022/10/12 05:54:59;;;;;;;3.77;2.10;;;;;;;;;;5030228;28;20668;-58
2022/10/12 05:57:25;;;;;;;6.17;2.03;;;;;;;;;;5029567;28;20261;-56
2022/10/12 05:59:51;;;;;;;3.97;1.93;;;;;;;;;;5025092;28;20287;-56
2022/10/12 06:02:17;;;;;;;3.40;1.80;;;;;;;;;;5029500;28;20223;-58
2022/10/12 06:04:44;;;;;;;3.63;2.00;;;;;;;;;;5012752;28;20227;-57
2022/10/12 06:07:10;;;;;;;3.20;1.80;;;;;;;;;;5030384;28;20817;-57
2022/10/12 06:09:39;;;;;;;4.30;1.87;;;;;;;;;;5023477;28;20286;-56
2022/10/12 06:12:06;;;;;;;3.57;1.80;;;;;;;;;;5028133;28;20215;-56
2022/10/12 06:14:33;;;;;;;3.63;1.70;;;;;;;;;;5028774;28;20227;-55
2022/10/12 06:16:59;;;;;;;4.67;1.93;;;;;;;;;;5028326;28;20230;-55
2022/10/12 06:19:25;;;;;;;4.43;1.80;;;;;;;;;;5028176;28;20283;-58
2022/10/12 06:21:51;;;;;;;2.37;1.43;;;;;;;;;;5028578;28;20314;-57
2022/10/12 06:24:18;;;;;;;2.00;1.63;;;;;;;;;;5029544;28;20199;-56
2022/10/12 06:26:44;;;;;;;4.45;1.88;;;;;;;;;;5024903;28;20286;-56
2022/10/12 06:29:10;;;;;;;2.85;1.80;;;;;;;;;;5028673;28;20238;-53
2022/10/12 06:31:38;;;;;;;4.33;1.93;;;;;;;;;;5029228;28;20250;-55
2022/10/12 06:34:05;;;;;;;2.90;1.77;;;;;;;;;;5029848;28;20302;-56
2022/10/12 06:36:31;;;;;;;2.55;1.95;;;;;;;;;;5024865;28;20230;-56
2022/10/12 06:38:57;;;;;;;2.80;1.70;;;;;;;;;;5027477;28;20192;-56
2022/10/12 06:41:24;;;;;;;2.38;1.50;;;;;;;;;;5028941;28;20717;-59
2022/10/12 06:43:50;;;;;;;3.03;1.50;;;;;;;;;;5026879;28;20242;-54
2022/10/12 06:46:16;;;;;;;4.10;1.65;;;;;;;;;;5027163;28;20207;-56
2022/10/12 06:48:43;;;;;;;2.70;1.58;;;;;;;;;;5027490;28;20737;-56
2022/10/12 06:51:09;;;;;;;2.75;1.45;;;;;;;;;;5028114;28;20265;-57
2022/10/12 06:53:35;;;;;;;2.75;1.60;;;;;;;;;;5027247;28;20310;-57
2022/10/12 06:56:07;;;;;;;2.30;1.58;;;;;;;;;;5029562;28;20279;-53
2022/10/12 06:58:33;;;;;;;3.05;1.70;;;;;;;;;;5027068;28;20210;-55
2022/10/12 07:01:01;;;;;;;2.33;1.63;;;;;;;;;;5028387;28;20215;-56
2022/10/12 07:03:28;;;;;;;3.10;1.80;;;;;;;;;;5027441;28;20632;-52
2022/10/12 07:05:54;;;;;;;2.72;1.70;;;;;;;;;;5029036;28;20647;-56
2022/10/12 07:08:21;;;;;;;2.30;1.70;;;;;;;;;;5024476;28;20204;-58
2022/10/12 07:10:47;;;;;;;2.53;1.50;;;;;;;;;;5024900;28;20219;-56
2022/10/12 07:13:13;;;;;;;3.47;1.90;;;;;;;;;;5027366;28;20278;-57
2022/10/12 07:15:40;;;;;;;2.78;1.60;;;;;;;;;;5023836;28;20247;-57
2022/10/12 07:18:06;;;;;;;4.18;1.70;;;;;;;;;;5033521;28;20191;-58
2022/10/12 07:20:32;;;;;;;2.28;1.60;;;;;;;;;;5027863;28;20991;-57
2022/10/12 07:22:59;;;;;;;1.75;1.60;;;;;;;;;;5027986;28;20298;-56
2022/10/12 07:25:25;;;;;;;1.83;1.55;;;;;;;;;;5025968;28;20730;-57
2022/10/12 07:27:51;;;;;;;2.42;1.48;;;;;;;;;;5028777;28;20290;-56
2022/10/12 07:30:18;;;;;;;2.72;1.65;;;;;;;;;;5011913;28;20277;-56
2022/10/12 07:32:45;;;;;;;1.92;1.30;;;;;;;;;;5026496;28;20660;-56
2022/10/12 07:35:12;;;;;;;2.60;1.50;;;;;;;;;;5029452;28;20305;-58
2022/10/12 07:37:38;;;;;;;2.53;1.67;;;;;;;;;;5029516;28;20214;-55
2022/10/12 07:40:06;;;;;;;2.03;1.55;;;;;;;;;;5029112;28;20546;-56
2022/10/12 07:42:32;;;;;;;2.80;1.55;;;;;;;;;;5024604;28;20627;-56
2022/10/12 07:44:58;;;;;;;2.38;1.45;;;;;;;;;;5029531;28;20283;-58
2022/10/12 07:47:25;;;;;;;3.08;1.90;;;;;;;;;;5028090;28;20227;-57
2022/10/12 07:49:51;;;;;;;1.70;1.38;;;;;;;;;;5026526;28;20212;-57
2022/10/12 07:52:17;;;;;;;4.10;1.40;;;;;;;;;;5026090;28;20298;-57
2022/10/12 07:54:44;;;;;;;2.20;1.45;;;;;;;;;;5029725;28;20310;-58
2022/10/12 07:57:10;;;;;;;2.30;1.55;;;;;;;;;;5032554;28;20286;-57
2022/10/12 07:59:36;;;;;;;3.40;1.75;;;;;;;;;;5014593;28;20686;-59
2022/10/12 08:02:03;;;;;;;2.35;1.70;;;;;;;;;;5032818;28;20301;-57
2022/10/12 08:04:29;;;;;;;2.65;1.48;;;;;;;;;;5032219;28;20697;-57
2022/10/12 08:06:57;;;;;;;1.40;1.15;;;;;;;;;;5027512;28;20235;-57
2022/10/12 08:09:23;;;;;;;2.20;1.27;;;;;;;;;;5029162;28;20310;-56
2022/10/12 08:11:49;;;;;;;2.63;1.40;;;;;;;;;;5032946;28;20247;-57
2022/10/12 08:14:16;;;;;;;2.15;1.63;;;;;;;;;;5029830;28;20303;-58
2022/10/12 08:16:43;;;;;;;2.13;1.48;;;;;;;;;;5033026;28;20290;-57
2022/10/12 08:19:09;;;;;;;2.50;1.52;;;;;;;;;;5032980;28;20321;-57
2022/10/12 08:21:36;;;;;;;2.95;1.85;;;;;;;;;;5029387;28;20318;-57
2022/10/12 08:24:02;;;;;;;1.95;1.63;;;;;;;;;;5033019;28;20278;-59
2022/10/12 08:26:29;;;;;;;1.75;1.50;;;;;;;;;;5032299;28;20467;-57
2022/10/12 08:28:55;;;;;;;1.50;1.40;;;;;;;;;;5032579;28;20745;-58
2022/10/12 08:31:22;;;;;;;2.25;1.55;;;;;;;;;;5029819;28;20239;-57
2022/10/12 08:33:48;;;;;;;2.03;1.40;;;;;;;;;;5031699;28;20286;-57
2022/10/12 08:36:14;;;;;;;2.45;1.70;;;;;;;;;;5032412;28;20230;-57
2022/10/12 08:38:42;;;;;;;1.30;1.20;;;;;;;;;;5032628;28;20195;-58
2022/10/12 08:41:42;;;;;;;2.05;1.80;;;;;;;;;;5029422;28;20269;-57
2022/10/12 08:45:01;;;;;;;2.40;1.42;;;;;;;;;;5028423;28;20287;-58
2022/10/12 08:47:39;;;;;;;1.58;1.35;;;;;;;;;;5005447;28;20231;-57
2022/10/12 08:50:13;;;;;;;2.17;1.50;;;;;;;;;;5013264;28;20199;-59
2022/10/12 08:52:51;;;;;;;2.35;1.58;;;;;;;;;;5013286;28;20317;-56
2022/10/12 08:55:22;;;;;;;3.22;1.67;;;;;;;;;;5031747;28;20231;-57
2022/10/12 08:57:49;;;;;;;1.35;1.25;;;;;;;;;;5028142;28;20196;-57
2022/10/12 09:00:16;;;;;;;2.20;1.40;;;;;;;;;;5032133;28;20207;-58
2022/10/12 09:03:03;;;;;;;3.35;1.40;;;;;;;;;;5030085;28;20227;-58
2022/10/12 09:05:39;;;;;;;1.58;1.30;;;;;;;;;;5013385;28;20286;-56
2022/10/12 09:08:13;;;;;;;1.50;1.20;;;;;;;;;;5010229;28;20287;-58
2022/10/12 09:10:46;;;;;;;1.75;1.30;;;;;;;;;;5011229;28;20294;-56
2022/10/12 09:13:40;;;;;;;1.63;1.35;;;;;;;;;;5031264;28;20646;-58
2022/10/12 09:16:21;;;;;;;2.47;1.60;;;;;;;;;;5012161;28;20306;-57
2022/10/12 09:19:00;;;;;;;1.98;1.40;;;;;;;;;;5028289;28;20205;-57
2022/10/12 09:21:27;;;;;;;1.88;1.40;;;;;;;;;;5030217;28;20302;-58
2022/10/12 09:23:55;;;;;;;1.70;1.30;;;;;;;;;;5030041;28;20210;-57
2022/10/12 09:26:38;;;;;;;2.17;1.35;;;;;;;;;;5011648;28;20290;-58
2022/10/12 09:29:24;;;;;;;1.98;1.25;;;;;;;;;;5026917;28;20223;-58
2022/10/12 09:32:20;;;;;;;2.20;1.42;;;;;;;;;;5030068;28;20243;-59
2022/10/12 09:34:47;;;;;;;1.63;1.40;;;;;;;;;;5026262;28;20310;-58
2022/10/12 09:37:18;;;;;;;2.17;1.33;;;;;;;;;;5014321;28;20291;-55
2022/10/12 09:39:45;;;;;;;1.70;1.50;;;;;;;;;;5013221;28;20226;-56
2022/10/12 09:42:11;;;;;;;1.38;1.10;;;;;;;;;;5026280;28;20753;-58
2022/10/12 09:44:56;;;;;;;1.98;1.35;;;;;;;;;;5030325;28;20727;-57
2022/10/12 09:47:30;;;;;;;2.17;1.40;;;;;;;;;;5013139;28;20290;-57
2022/10/12 09:50:01;;;;;;;1.55;1.30;;;;;;;;;;5029300;28;20219;-57
2022/10/12 09:52:38;;;;;;;2.13;1.23;;;;;;;;;;5027455;28;20226;-58
2022/10/12 09:55:18;;;;;;;2.35;1.30;;;;;;;;;;5030531;28;20647;-59
2022/10/12 09:57:53;;;;;;;1.63;1.27;;;;;;;;;;5011542;28;20222;-60
2022/10/12 10:00:29;;;;;;;2.42;1.50;;;;;;;;;;5012725;28;20233;-59
2022/10/12 10:02:55;;;;;;;1.77;1.40;;;;;;;;;;5012489;28;20318;-58
2022/10/12 10:05:25;;;;;;;1.88;1.30;;;;;;;;;;5029952;28;20713;-58
2022/10/12 10:07:52;;;;;;;1.40;1.30;;;;;;;;;;5028857;28;20730;-58
2022/10/12 10:10:22;;;;;;;1.65;1.40;;;;;;;;;;5028056;28;20302;-58
2022/10/12 10:12:57;;;;;;;1.40;1.10;;;;;;;;;;5013149;28;20868;-57
2022/10/12 10:15:26;;;;;;;1.70;1.35;;;;;;;;;;5012979;28;20777;-57
2022/10/12 10:18:01;;;;;;;1.85;1.45;;;;;;;;;;5011657;28;20482;-57
2022/10/12 10:20:44;;;;;;;1.67;1.17;;;;;;;;;;5030368;28;20199;-57
2022/10/12 10:23:31;;;;;;;2.97;1.38;;;;;;;;;;5012544;28;20246;-58
2022/10/12 10:26:11;;;;;;;1.88;1.30;;;;;;;;;;5030257;28;20227;-58
2022/10/12 10:28:42;;;;;;;1.98;1.30;;;;;;;;;;5012736;28;20238;-58
2022/10/12 10:31:26;;;;;;;1.77;1.40;;;;;;;;;;5030311;28;20215;-59
2022/10/12 10:34:17;;;;;;;2.83;1.38;;;;;;;;;;5029440;28;20286;-59
2022/10/12 10:36:51;;;;;;;1.75;1.20;;;;;;;;;;5024294;28;20290;-57
2022/10/12 10:39:22;;;;;;;1.77;1.13;;;;;;;;;;5013227;28;20213;-59
2022/10/12 10:41:48;;;;;;;1.45;1.27;;;;;;;;;;5011786;28;20215;-57
2022/10/12 10:44:22;;;;;;;1.65;1.42;;;;;;;;;;5008419;28;20231;-58
2022/10/12 10:46:49;;;;;;;2.45;1.50;;;;;;;;;;5030675;28;20282;-58
2022/10/12 10:49:32;;;;;;;2.20;1.40;;;;;;;;;;5029321;28;20279;-59
2022/10/12 10:51:59;;;;;;;1.58;1.15;;;;;;;;;;5027559;28;20258;-58
2022/10/12 10:54:28;;;;;;;2.25;1.50;;;;;;;;;;5011973;28;20283;-59
2022/10/12 10:57:02;;;;;;;1.40;1.30;;;;;;;;;;5030399;28;20286;-58
2022/10/12 10:59:35;;;;;;;1.67;1.33;;;;;;;;;;5030236;28;20282;-58
2022/10/12 11:02:10;;;;;;;1.65;1.33;;;;;;;;;;5027946;28;20302;-58
2022/10/12 11:04:46;;;;;;;1.88;1.50;;;;;;;;;;5012346;28;20245;-58
2022/10/12 11:07:30;;;;;;;2.75;1.70;;;;;;;;;;5029339;28;20290;-59
2022/10/12 11:10:00;;;;;;;1.75;1.27;;;;;;;;;;5027148;28;20282;-59
2022/10/12 11:12:37;;;;;;;1.73;1.40;;;;;;;;;;5012268;28;20650;-58
2022/10/12 11:15:27;;;;;;;1.80;1.33;;;;;;;;;;5012154;28;20765;-57
2022/10/12 11:17:58;;;;;;;3.58;2.08;;;;;;;;;;5007466;28;20290;-57
2022/10/12 11:20:30;;;;;;;2.20;1.50;;;;;;;;;;5009862;28;20227;-58
2022/10/12 11:23:02;;;;;;;2.95;1.63;;;;;;;;;;5011533;28;20302;-56
2022/10/12 11:25:51;;;;;;;1.70;1.48;;;;;;;;;;5011909;28;20271;-58
2022/10/12 11:28:17;;;;;;;2.63;1.88;;;;;;;;;;5020672;28;20279;-55
2022/10/12 11:30:48;;;;;;;2.95;2.08;;;;;;;;;;5032648;28;20282;-57
2022/10/12 11:33:20;;;;;;;2.40;1.30;;;;;;;;;;5033560;28;20278;-55
2022/10/12 11:35:46;;;;;;;2.08;1.55;;;;;;;;;;5035902;28;20371;-58
2022/10/12 11:38:31;;;;;;;1.80;1.48;;;;;;;;;;5033486;28;20282;-57
2022/10/12 11:41:03;;;;;;;2.13;1.52;;;;;;;;;;5031329;28;20283;-59
2022/10/12 11:43:56;;;;;;;2.15;1.60;;;;;;;;;;5016385;28;20589;-59
2022/10/12 11:46:35;;;;;;;2.13;1.70;;;;;;;;;;5014630;28;20446;-59
2022/10/12 11:49:13;;;;;;;2.72;1.85;;;;;;;;;;5028499;28;20734;-57
2022/10/12 11:51:44;;;;;;;1.73;1.38;;;;;;;;;;5011287;28;20305;-57
2022/10/12 11:54:47;;;;;;;3.13;1.98;;;;;;;;;;5016015;28;20282;-59
2022/10/12 11:57:34;;;;;;;1.98;1.40;;;;;;;;;;5030173;28;20271;-58
2022/10/12 12:00:02;;;;;;;1.83;1.40;;;;;;;;;;5025653;28;20291;-58
2022/10/12 12:02:40;;;;;;;2.45;1.38;;;;;;;;;;5031673;28;20310;-58
2022/10/12 12:05:13;;;;;;;2.28;1.73;;;;;;;;;;5014368;28;20720;-58
2022/10/12 12:07:45;;;;;;;3.10;2.40;;;;;;;;;;5028635;28;20203;-57
2022/10/12 12:10:26;;;;;;;3.40;2.53;;;;;;;;;;5015567;28;20195;-57
2022/10/12 12:13:19;;;;;;;3.20;1.60;;;;;;;;;;5032147;28;20220;-57
2022/10/12 12:15:48;;;;;;;2.97;1.55;;;;;;;;;;5031527;28;20673;-57
2022/10/12 12:18:24;;;;;;;3.42;1.83;;;;;;;;;;5030844;28;20274;-55
2022/10/12 12:21:01;;;;;;;2.05;1.50;;;;;;;;;;5033630;28;20725;-58
2022/10/12 12:23:51;;;;;;;2.08;1.73;;;;;;;;;;5033441;28;20311;-58
2022/10/12 12:26:19;;;;;;;3.35;2.00;;;;;;;;;;5024887;28;20231;-58
2022/10/12 12:28:48;;;;;;;1.55;1.15;;;;;;;;;;5033777;28;20650;-57
2022/10/12 12:31:21;;;;;;;1.48;1.10;;;;;;;;;;5035575;28;20775;-59
2022/10/12 12:34:03;;;;;;;1.42;1.13;;;;;;;;;;5031534;28;20682;-59
2022/10/12 12:36:34;;;;;;;2.85;2.05;;;;;;;;;;5013533;28;20306;-58
2022/10/12 12:39:03;;;;;;;3.63;1.80;;;;;;;;;;5028067;28;20637;-59
2022/10/12 12:41:51;;;;;;;2.42;1.70;;;;;;;;;;5018591;28;20247;-58
2022/10/12 12:44:41;;;;;;;1.40;1.30;;;;;;;;;;5015408;28;20670;-57
2022/10/12 12:47:11;;;;;;;1.98;1.25;;;;;;;;;;5025750;28;20646;-57
2022/10/12 12:50:00;;;;;;;1.77;1.27;;;;;;;;;;5034126;28;20195;-58
2022/10/12 12:52:34;;;;;;;1.50;1.30;;;;;;;;;;5017595;28;20215;-59
2022/10/12 12:55:12;;;;;;;1.45;1.20;;;;;;;;;;5004479;28;20195;-57
2022/10/12 12:58:06;;;;;;;2.13;1.50;;;;;;;;;;5032296;28;20295;-59
2022/10/12 13:00:38;;;;;;;1.60;1.13;;;;;;;;;;5011069;28;20214;-57
2022/10/12 13:03:26;;;;;;;2.95;1.80;;;;;;;;;;5006425;28;20223;-57
2022/10/12 13:06:52;;;;;;;1.63;1.35;;;;;;;;;;5013694;28;20276;-57
2022/10/12 13:09:28;;;;;;;1.95;1.60;;;;;;;;;;4951270;28;20294;-57
2022/10/12 13:12:16;;;;;;;2.30;1.50;;;;;;;;;;5011576;28;20266;-58
2022/10/12 13:15:15;;;;;;;1.80;1.40;;;;;;;;;;5029335;28;20652;-57
2022/10/12 13:18:18;;;;;;;3.70;2.00;;;;;;;;;;4997446;28;20290;-57
2022/10/12 13:21:06;;;;;;;2.88;2.10;;;;;;;;;;5027152;28;20196;-57
2022/10/12 13:23:33;;;;;;;2.63;2.10;;;;;;;;;;5014534;28;20290;-57
2022/10/12 13:26:05;;;;;;;2.63;1.48;;;;;;;;;;5030300;28;20283;-57
2022/10/12 13:28:36;;;;;;;4.80;2.33;;;;;;;;;;5028108;28;20287;-57
2022/10/12 13:31:10;;;;;;;4.40;2.85;;;;;;;;;;5014064;28;20195;-59
2022/10/12 13:33:49;;;;;;;2.38;1.80;;;;;;;;;;4997933;28;20280;-58
2022/10/12 13:36:24;;;;;;;2.85;2.15;;;;;;;;;;5012495;28;20225;-57
2022/10/12 13:38:59;;;;;;;3.20;2.13;;;;;;;;;;5030438;28;20793;-57
2022/10/12 13:41:29;;;;;;;4.45;2.55;;;;;;;;;;5030786;28;20298;-58
2022/10/12 13:44:00;;;;;;;3.00;2.10;;;;;;;;;;5032101;28;20246;-57
2022/10/12 13:46:43;;;;;;;4.18;2.72;;;;;;;;;;5012965;28;20227;-57
2022/10/12 13:49:17;;;;;;;5.45;2.80;;;;;;;;;;5031083;28;20226;-57
2022/10/12 13:51:47;;;;;;;3.90;1.90;;;;;;;;;;5028553;28;20310;-57
2022/10/12 13:54:38;;;;;;;3.35;2.60;;;;;;;;;;5030913;28;20286;-58
2022/10/12 13:57:21;;;;;;;2.80;1.92;;;;;;;;;;5015876;28;20265;-59
2022/10/12 14:00:01;;;;;;;2.78;2.10;;;;;;;;;;5028232;28;20283;-59
2022/10/12 14:02:29;;;;;;;4.18;2.35;;;;;;;;;;5030831;28;20306;-58
2022/10/12 14:04:58;;;;;;;3.63;2.00;;;;;;;;;;5010831;28;20286;-56
2022/10/12 14:07:37;;;;;;;3.70;2.40;;;;;;;;;;5031061;28;20622;-58
2022/10/12 14:10:06;;;;;;;3.72;1.92;;;;;;;;;;5013797;28;20286;-57
2022/10/12 14:12:34;;;;;;;2.08;1.60;;;;;;;;;;5011560;28;20226;-58
2022/10/12 14:15:02;;;;;;;2.03;1.65;;;;;;;;;;5027096;28;20278;-58
2022/10/12 14:17:28;;;;;;;2.95;2.25;;;;;;;;;;5011730;28;20298;-58
2022/10/12 14:19:58;;;;;;;1.85;1.50;;;;;;;;;;5010764;28;20395;-56
2022/10/12 14:22:30;;;;;;;1.73;1.35;;;;;;;;;;5013098;28;20298;-58
2022/10/12 14:25:10;;;;;;;1.75;1.50;;;;;;;;;;5010765;28;20227;-57
2022/10/12 14:27:38;;;;;;;1.15;1.00;;;;;;;;;;5030916;28;20199;-58
2022/10/12 14:30:23;;;;;;;2.38;1.70;;;;;;;;;;5012025;28;20199;-57
2022/10/12 14:32:50;;;;;;;6.57;3.50;;;;;;;;;;5028112;28;20223;-58
2022/10/12 14:35:23;;;;;;;3.00;2.30;;;;;;;;;;5029272;28;20196;-58
2022/10/12 14:37:51;;;;;;;2.95;2.20;;;;;;;;;;5030561;28;20299;-57
2022/10/12 14:40:31;;;;;;;2.72;1.60;;;;;;;;;;5028483;28;20291;-58
2022/10/12 14:43:02;;;;;;;3.22;2.00;;;;;;;;;;5030583;28;20644;-58
2022/10/12 14:45:29;;;;;;;4.18;2.47;;;;;;;;;;5029436;28;20227;-57
2022/10/12 14:47:55;;;;;;;4.07;2.70;;;;;;;;;;5027910;28;20237;-59
2022/10/12 14:50:22;;;;;;;2.28;1.77;;;;;;;;;;5030408;28;20633;-57
2022/10/12 14:52:54;;;;;;;4.78;2.42;;;;;;;;;;5030144;28;20306;-57
2022/10/12 14:55:23;;;;;;;2.75;2.15;;;;;;;;;;5010399;28;20647;-59
2022/10/12 14:57:49;;;;;;;4.45;2.40;;;;;;;;;;5027550;28;20282;-57
2022/10/12 15:00:30;;;;;;;6.55;2.72;;;;;;;;;;5012692;28;20287;-57
2022/10/12 15:02:56;;;;;;;3.70;2.30;;;;;;;;;;5029277;28;20258;-58
2022/10/12 15:05:25;;;;;;;5.05;2.72;;;;;;;;;;5029841;28;20274;-56
2022/10/12 15:07:51;;;;;;;4.88;2.75;;;;;;;;;;5024890;28;20659;-59
2022/10/12 15:10:20;;;;;;;3.30;1.92;;;;;;;;;;5028909;28;20207;-57
2022/10/12 15:12:48;;;;;;;1.95;1.67;;;;;;;;;;5029185;28;20227;-57